createdAt,value
2023-01-18T00:02:32.237Z,0.90
2023-01-18T00:05:39.922Z,1.65
2023-01-18T00:08:42.732Z,1.30
2023-01-18T00:11:45.601Z,2.00
2023-01-18T00:14:48.214Z,1.20
2023-01-18T00:17:53.924Z,2.58
2023-01-18T00:21:00.407Z,1.37
2023-01-18T00:24:03.237Z,2.05
2023-01-18T00:27:05.789Z,1.90
2023-01-18T00:30:09.548Z,1.73
2023-01-18T00:33:12.115Z,2.10
2023-01-18T00:36:15.818Z,1.42
2023-01-18T00:39:18.469Z,2.15
2023-01-18T00:42:39.909Z,1.73
2023-01-18T00:45:42.989Z,1.90
2023-01-18T00:48:46.054Z,2.08
2023-01-18T00:51:48.654Z,2.35
2023-01-18T00:54:51.551Z,2.45
2023-01-18T00:57:54.213Z,2.93
2023-01-18T01:00:57.105Z,2.23
2023-01-18T01:04:18.739Z,2.20
2023-01-18T01:07:21.577Z,2.33
2023-01-18T01:10:24.236Z,2.85
2023-01-18T01:13:45.475Z,3.00
2023-01-18T01:17:06.722Z,2.23
2023-01-18T01:20:29.777Z,1.92
2023-01-18T01:23:50.891Z,2.78
2023-01-18T01:26:53.781Z,2.35
2023-01-18T01:29:56.393Z,2.93
2023-01-18T01:32:59.474Z,4.43
2023-01-18T01:36:07.668Z,4.50
2023-01-18T01:39:11.270Z,4.45
2023-01-18T01:42:13.999Z,3.92
2023-01-18T01:45:19.645Z,4.87
2023-01-18T01:48:22.206Z,3.83
2023-01-18T01:51:25.132Z,4.40
2023-01-18T01:54:36.414Z,4.55
2023-01-18T01:57:53.227Z,3.95
2023-01-18T02:00:55.793Z,2.83
2023-01-18T02:04:01.549Z,2.33
2023-01-18T02:07:04.472Z,2.90
2023-01-18T02:10:07.847Z,3.00
2023-01-18T02:13:11.099Z,2.67
2023-01-18T02:16:19.969Z,2.33
2023-01-18T02:19:44.739Z,2.53
2023-01-18T02:23:07.302Z,2.75
2023-01-18T02:26:21.994Z,2.90
2023-01-18T02:29:34.276Z,3.47
2023-01-18T02:33:02.301Z,2.57
2023-01-18T02:36:06.979Z,2.53
2023-01-18T02:39:38.496Z,2.75
2023-01-18T02:43:00.917Z,2.72
2023-01-18T02:46:24.706Z,2.75
2023-01-18T02:49:32.203Z,2.50
2023-01-18T02:52:39.364Z,1.30
2023-01-18T02:56:16.851Z,1.52
2023-01-18T02:59:23.622Z,1.90
2023-01-18T03:02:26.734Z,1.20
2023-01-18T03:05:30.525Z,1.70
2023-01-18T03:08:36.406Z,0.87
2023-01-18T03:11:41.327Z,1.70
2023-01-18T03:15:13.932Z,1.25
2023-01-18T03:18:40.365Z,1.87
2023-01-18T03:21:48.837Z,1.07
2023-01-18T03:24:51.589Z,1.00
2023-01-18T03:28:13.737Z,1.83
2023-01-18T03:31:59.616Z,1.48
2023-01-18T03:35:09.169Z,1.10
2023-01-18T03:38:12.035Z,1.23
2023-01-18T03:41:15.490Z,0.80
2023-01-18T03:44:32.037Z,1.85
2023-01-18T03:47:35.146Z,2.08
2023-01-18T03:50:53.667Z,1.83
2023-01-18T03:54:10.391Z,2.27
2023-01-18T03:57:47.576Z,1.37
2023-01-18T04:00:52.716Z,2.00
2023-01-18T04:03:55.611Z,2.05
2023-01-18T04:06:58.228Z,2.10
2023-01-18T04:10:01.218Z,2.57
2023-01-18T04:13:03.763Z,2.47
2023-01-18T04:16:07.104Z,2.95
2023-01-18T04:19:09.661Z,2.42
2023-01-18T04:22:12.592Z,0.93
2023-01-18T04:25:15.218Z,2.10
2023-01-18T04:28:25.409Z,2.60
2023-01-18T04:31:28.342Z,1.85
2023-01-18T04:34:32.187Z,1.55
2023-01-18T04:37:34.816Z,1.62
2023-01-18T04:40:37.570Z,1.70
2023-01-18T04:43:40.025Z,2.50
2023-01-18T04:46:43.181Z,2.50
2023-01-18T04:49:45.780Z,2.80
2023-01-18T04:52:48.673Z,2.22
2023-01-18T04:55:51.236Z,3.10
2023-01-18T04:58:54.699Z,3.30
2023-01-18T05:01:57.765Z,2.62
2023-01-18T05:05:00.755Z,2.28
2023-01-18T05:08:03.386Z,2.65
2023-01-18T05:11:11.089Z,2.90
2023-01-18T05:14:13.741Z,2.53
2023-01-18T05:17:16.696Z,2.83
2023-01-18T05:20:19.199Z,3.17
2023-01-18T05:23:22.664Z,2.05
2023-01-18T05:26:25.288Z,2.43
2023-01-18T05:29:28.129Z,2.80
2023-01-18T05:32:30.746Z,2.58
2023-01-18T05:35:33.598Z,3.30
2023-01-18T05:38:36.275Z,2.47
2023-01-18T05:41:39.209Z,3.70
2023-01-18T05:44:41.783Z,2.90
2023-01-18T05:47:45.279Z,2.70
2023-01-18T05:50:48.908Z,3.67
2023-01-18T05:53:52.086Z,2.70
2023-01-18T05:56:54.694Z,3.60
2023-01-18T05:59:57.599Z,2.83
2023-01-18T06:03:01.317Z,2.92
2023-01-18T06:06:04.531Z,3.40
2023-01-18T06:09:07.198Z,2.15
2023-01-18T06:12:10.369Z,3.33
2023-01-18T06:15:13.671Z,2.43
2023-01-18T06:18:16.767Z,2.60
2023-01-18T06:21:19.361Z,2.70
2023-01-18T06:24:22.388Z,2.55
2023-01-18T06:27:25.115Z,2.60
2023-01-18T06:30:28.263Z,35.17
2023-01-18T06:33:30.914Z,65.03
2023-01-18T06:36:33.824Z,14.98
2023-01-18T06:39:36.585Z,4.65
2023-01-18T06:42:40.025Z,4.67
2023-01-18T06:45:42.700Z,8.00
2023-01-18T06:48:45.717Z,23.85
2023-01-18T06:51:48.533Z,13.43
2023-01-18T06:57:56.252Z,12.07
2023-01-18T07:01:00.623Z,7.57
2023-01-18T07:04:03.436Z,7.57
2023-01-18T07:07:06.542Z,4.30
2023-01-18T07:10:09.887Z,5.20
2023-01-18T07:13:12.838Z,10.53
2023-01-18T07:16:21.128Z,16.23
2023-01-18T07:19:24.006Z,7.35
2023-01-18T07:22:28.391Z,5.18
2023-01-18T07:25:31.377Z,5.60
2023-01-18T07:28:34.491Z,6.60
2023-01-18T07:31:38.417Z,7.13
2023-01-18T07:34:41.068Z,11.48
2023-01-18T07:37:48.548Z,13.05
2023-01-18T07:40:51.348Z,15.82
2023-01-18T07:43:55.863Z,10.67
2023-01-18T07:46:58.682Z,14.03
2023-01-18T07:50:02.224Z,11.05
2023-01-18T07:53:07.231Z,21.50
2023-01-18T07:56:15.618Z,49.10
2023-01-18T07:59:18.296Z,24.17
2023-01-18T08:02:21.907Z,9.63
2023-01-18T08:05:26.903Z,6.85
2023-01-18T08:08:30.031Z,5.70
2023-01-18T08:11:32.980Z,5.28
2023-01-18T08:14:35.971Z,4.60
2023-01-18T08:17:39.077Z,4.20
2023-01-18T08:20:45.942Z,4.22
2023-01-18T08:23:49.169Z,4.07
2023-01-18T08:26:51.816Z,4.95
2023-01-18T08:29:54.787Z,4.10
2023-01-18T08:32:59.822Z,4.60
2023-01-18T08:36:03.033Z,4.60
2023-01-18T08:39:05.648Z,4.28
2023-01-18T08:42:12.204Z,4.07
2023-01-18T08:45:15.811Z,4.03
2023-01-18T08:48:18.924Z,4.80
2023-01-18T08:51:23.248Z,4.07
2023-01-18T08:54:26.641Z,3.78
2023-01-18T08:57:29.379Z,3.60
2023-01-18T09:00:32.879Z,4.53
2023-01-18T09:03:35.812Z,4.00
2023-01-18T09:06:38.859Z,5.20
2023-01-18T09:09:42.047Z,5.82
2023-01-18T09:12:45.559Z,3.92
2023-01-18T09:15:48.712Z,2.70
2023-01-18T09:18:52.467Z,3.20
2023-01-18T09:21:55.818Z,3.10
2023-01-18T09:24:59.474Z,2.70
2023-01-18T09:28:03.488Z,2.28
2023-01-18T09:31:10.947Z,3.20
2023-01-18T09:34:19.417Z,3.70
2023-01-18T09:37:22.935Z,1.75
2023-01-18T09:40:37.627Z,2.67
2023-01-18T09:43:48.426Z,3.20
2023-01-18T09:47:01.823Z,2.33
2023-01-18T09:50:16.086Z,2.80
2023-01-18T09:53:46.899Z,3.03
2023-01-18T09:56:57.400Z,3.22
2023-01-18T10:00:01.182Z,2.90
2023-01-18T10:03:11.707Z,2.27
2023-01-18T10:06:43.694Z,3.43
2023-01-18T10:09:53.047Z,3.05
2023-01-18T10:13:21.741Z,2.12
2023-01-18T10:16:25.397Z,2.92
2023-01-18T10:19:30.319Z,3.40
2023-01-18T10:22:45.686Z,3.10
2023-01-18T10:25:57.272Z,2.70
2023-01-18T10:29:14.633Z,1.92
2023-01-18T10:32:21.265Z,2.37
2023-01-18T10:35:33.218Z,2.50
2023-01-18T10:38:36.325Z,2.40
2023-01-18T10:41:40.832Z,2.30
2023-01-18T10:44:43.834Z,1.73
2023-01-18T10:47:50.733Z,2.55
2023-01-18T10:51:02.181Z,2.77
2023-01-18T10:54:26.910Z,2.67
2023-01-18T10:57:43.494Z,3.00
2023-01-18T11:00:53.621Z,2.20
2023-01-18T11:04:08.277Z,2.10
2023-01-18T11:07:11.362Z,2.50
2023-01-18T11:10:32.450Z,2.93
2023-01-18T11:13:42.735Z,2.55
2023-01-18T11:16:57.830Z,2.10
2023-01-18T11:20:08.351Z,2.33
2023-01-18T11:23:14.110Z,2.63
2023-01-18T11:26:19.316Z,4.17
2023-01-18T11:29:28.336Z,3.58
2023-01-18T11:32:33.719Z,2.42
2023-01-18T11:35:37.346Z,2.80
2023-01-18T11:38:41.559Z,3.40
2023-01-18T11:41:44.474Z,3.30
2023-01-18T11:45:04.488Z,3.45
2023-01-18T11:48:13.301Z,3.00
2023-01-18T11:51:32.155Z,2.75
2023-01-18T11:54:47.041Z,3.30
2023-01-18T11:57:51.408Z,3.40
2023-01-18T12:01:25.217Z,2.92
2023-01-18T12:04:40.044Z,2.67
2023-01-18T12:07:45.991Z,2.97
2023-01-18T12:11:20.196Z,2.70
2023-01-18T12:14:45.187Z,3.13
2023-01-18T12:18:32.643Z,3.60
2023-01-18T12:22:00.245Z,3.47
2023-01-18T12:25:16.438Z,3.97
2023-01-18T12:28:26.489Z,4.40
2023-01-18T12:31:53.380Z,3.07
2023-01-18T12:35:23.359Z,3.33
2023-01-18T12:38:32.560Z,3.15
2023-01-18T12:41:50.004Z,4.72
2023-01-18T12:44:58.457Z,5.53
2023-01-18T12:48:24.809Z,3.63
2023-01-18T12:51:32.546Z,3.00
2023-01-18T12:54:55.660Z,3.60
2023-01-18T12:58:00.368Z,3.58
2023-01-18T13:01:06.032Z,4.60
2023-01-18T13:04:16.872Z,3.83
2023-01-18T13:07:25.774Z,6.80
2023-01-18T13:10:29.346Z,4.70
2023-01-18T13:13:32.466Z,7.55
2023-01-18T13:16:50.288Z,10.13
2023-01-18T13:19:56.092Z,11.47
2023-01-18T13:23:17.802Z,8.70
2023-01-18T13:26:31.315Z,5.62
2023-01-18T13:29:34.454Z,4.20
2023-01-18T13:32:38.038Z,4.33
2023-01-18T13:35:50.833Z,3.50
2023-01-18T13:38:58.497Z,4.05
2023-01-18T13:42:04.506Z,5.05
2023-01-18T13:45:14.890Z,4.12
2023-01-18T13:48:43.465Z,4.53
2023-01-18T13:51:52.096Z,5.80
2023-01-18T13:54:55.094Z,6.45
2023-01-18T13:57:58.338Z,9.05
2023-01-18T14:01:03.905Z,7.15
2023-01-18T14:04:22.944Z,5.87
2023-01-18T14:07:25.596Z,6.93
2023-01-18T14:10:33.361Z,8.30
2023-01-18T14:14:01.405Z,7.57
2023-01-18T14:17:15.513Z,6.97
2023-01-18T14:20:36.650Z,8.20
2023-01-18T14:23:57.982Z,7.77
2023-01-18T14:27:01.129Z,8.35
2023-01-18T14:30:12.134Z,8.00
2023-01-18T14:33:24.653Z,16.58
2023-01-18T14:36:28.981Z,14.60
2023-01-18T14:39:33.421Z,7.47
2023-01-18T14:42:41.526Z,14.02
2023-01-18T14:45:57.912Z,15.38
2023-01-18T14:49:01.811Z,13.98
2023-01-18T14:52:07.764Z,15.50
2023-01-18T14:55:24.026Z,13.37
2023-01-18T14:58:27.609Z,10.55
2023-01-18T15:01:37.232Z,9.05
2023-01-18T15:04:45.505Z,11.45
2023-01-18T15:07:55.381Z,12.57
2023-01-18T15:10:58.660Z,12.40
2023-01-18T15:14:02.050Z,11.68
2023-01-18T15:17:21.487Z,13.55
2023-01-18T15:20:24.547Z,11.63
2023-01-18T15:23:27.637Z,11.33
2023-01-18T15:27:00.870Z,12.23
2023-01-18T15:30:12.242Z,12.48
2023-01-18T15:33:15.697Z,14.10
2023-01-18T15:36:18.383Z,14.73
2023-01-18T15:39:21.314Z,18.40
2023-01-18T15:42:49.843Z,17.73
2023-01-18T15:45:55.180Z,20.05
2023-01-18T15:48:58.420Z,28.00
2023-01-18T15:52:03.045Z,37.22
2023-01-18T15:55:07.639Z,17.97
2023-01-18T15:58:31.244Z,22.00
2023-01-18T16:01:36.956Z,21.77
2023-01-18T16:04:40.798Z,18.30
2023-01-18T16:07:43.426Z,16.52
2023-01-18T16:10:54.750Z,13.47
2023-01-18T16:13:59.271Z,10.77
2023-01-18T16:17:18.069Z,16.98
2023-01-18T16:20:20.844Z,22.75
2023-01-18T16:23:23.717Z,14.80
2023-01-18T16:26:29.764Z,14.00
2023-01-18T16:29:44.791Z,16.50
2023-01-18T16:32:48.002Z,14.65
2023-01-18T16:35:51.071Z,10.85
2023-01-18T16:38:53.702Z,26.83
2023-01-18T16:41:57.461Z,25.83
2023-01-18T16:45:00.099Z,18.53
2023-01-18T16:48:04.539Z,41.63
2023-01-18T16:51:13.542Z,23.85
2023-01-18T16:54:16.427Z,22.83
2023-01-18T16:57:23.249Z,19.67
2023-01-18T17:00:30.826Z,16.10
2023-01-18T17:03:34.605Z,17.08
2023-01-18T17:06:40.927Z,17.85
2023-01-18T17:09:48.665Z,32.88
2023-01-18T17:12:52.041Z,18.33
2023-01-18T17:15:54.655Z,13.00
2023-01-18T17:18:57.558Z,12.35
2023-01-18T17:22:00.516Z,18.27
2023-01-18T17:25:03.565Z,18.85
2023-01-18T17:28:06.380Z,20.00
2023-01-18T17:31:09.319Z,18.17
2023-01-18T17:34:18.487Z,17.37
2023-01-18T17:37:21.486Z,23.25
2023-01-18T17:40:38.166Z,16.67
2023-01-18T17:43:42.811Z,11.40
2023-01-18T17:46:45.568Z,27.70
2023-01-18T17:49:48.704Z,28.20
2023-01-18T17:52:52.657Z,18.17
2023-01-18T17:55:55.447Z,13.93
2023-01-18T17:58:58.041Z,29.77
2023-01-18T18:02:00.969Z,8.60
2023-01-18T18:05:04.516Z,10.40
2023-01-18T18:08:07.773Z,15.25
2023-01-18T18:11:12.294Z,16.48
2023-01-18T18:14:15.459Z,25.27
2023-01-18T18:17:18.468Z,12.73
2023-01-18T18:20:22.742Z,10.75
2023-01-18T18:23:28.554Z,11.48
2023-01-18T18:26:31.225Z,9.50
2023-01-18T18:29:34.434Z,10.13
2023-01-18T18:32:37.474Z,12.03
2023-01-18T18:35:42.117Z,19.02
2023-01-18T18:38:44.838Z,35.13
2023-01-18T18:41:48.298Z,15.82
2023-01-18T18:44:51.418Z,10.60
2023-01-18T18:47:54.499Z,12.33
2023-01-18T18:50:58.524Z,9.00
2023-01-18T18:54:02.769Z,28.27
2023-01-18T18:57:05.499Z,7.75
2023-01-18T19:00:10.510Z,13.03
2023-01-18T19:03:13.631Z,23.10
2023-01-18T19:06:16.844Z,20.70
2023-01-18T19:09:20.134Z,23.33
2023-01-18T19:12:23.340Z,12.88
2023-01-18T19:15:25.884Z,10.60
2023-01-18T19:18:30.038Z,13.20
2023-01-18T19:21:33.150Z,18.80
2023-01-18T19:24:36.998Z,10.35
2023-01-18T19:27:40.054Z,8.40
2023-01-18T19:30:44.591Z,12.13
2023-01-18T19:33:47.563Z,12.33
2023-01-18T19:36:50.689Z,12.88
2023-01-18T19:39:53.363Z,13.45
2023-01-18T19:42:59.825Z,12.27
2023-01-18T19:46:07.341Z,14.10
2023-01-18T19:49:10.443Z,14.60
2023-01-18T19:52:14.132Z,14.98
2023-01-18T19:55:17.493Z,11.25
2023-01-18T19:58:20.358Z,11.35
2023-01-18T20:01:35.846Z,12.77
2023-01-18T20:04:39.454Z,11.27
2023-01-18T20:07:42.651Z,28.12
2023-01-18T20:10:45.727Z,20.00
2023-01-18T20:13:49.713Z,17.27
2023-01-18T20:16:52.756Z,17.00
2023-01-18T20:19:55.603Z,15.40
2023-01-18T20:22:59.022Z,12.57
2023-01-18T20:26:02.196Z,13.55
2023-01-18T20:29:08.531Z,12.15
2023-01-18T20:32:17.236Z,12.07
2023-01-18T20:35:20.630Z,12.37
2023-01-18T20:38:23.508Z,11.65
2023-01-18T20:41:26.657Z,12.13
2023-01-18T20:44:29.461Z,11.10
2023-01-18T20:47:33.014Z,8.30
2023-01-18T20:50:35.850Z,12.07
2023-01-18T20:53:38.695Z,11.10
2023-01-18T20:56:41.358Z,11.50
2023-01-18T20:59:44.707Z,11.88
2023-01-18T21:02:47.949Z,11.50
2023-01-18T21:05:50.920Z,13.03
2023-01-18T21:08:54.530Z,9.68
2023-01-18T21:11:57.520Z,5.87
2023-01-18T21:15:00.229Z,10.02
2023-01-18T21:18:04.297Z,12.30
2023-01-18T21:21:07.153Z,10.93
2023-01-18T21:24:10.143Z,11.95
2023-01-18T21:27:12.912Z,12.18
2023-01-18T21:30:16.685Z,11.12
2023-01-18T21:33:19.705Z,12.20
2023-01-18T21:36:23.198Z,10.53
2023-01-18T21:39:26.023Z,10.77
2023-01-18T21:42:47.872Z,11.02
2023-01-18T21:45:58.844Z,11.95
2023-01-18T21:49:06.680Z,11.43
2023-01-18T21:52:27.917Z,11.30
2023-01-18T21:55:30.726Z,12.57
2023-01-18T21:58:52.425Z,11.48
2023-01-18T22:01:55.424Z,12.20
2023-01-18T22:05:03.320Z,11.20
2023-01-18T22:08:06.028Z,11.03
2023-01-18T22:11:09.164Z,8.80
2023-01-18T22:14:11.879Z,10.38
2023-01-18T22:17:14.718Z,10.43
2023-01-18T22:20:18.355Z,8.33
2023-01-18T22:23:21.206Z,10.20
2023-01-18T22:26:25.326Z,11.30
2023-01-18T22:29:28.247Z,9.85
2023-01-18T22:32:30.805Z,7.25
2023-01-18T22:35:33.663Z,8.87
2023-01-18T22:38:37.386Z,11.80
2023-01-18T22:41:40.406Z,10.73
2023-01-18T22:44:42.955Z,12.00
2023-01-18T22:47:45.865Z,9.93
2023-01-18T22:50:55.340Z,10.23
2023-01-18T22:53:58.220Z,8.27
2023-01-18T22:57:00.843Z,5.03
2023-01-18T23:00:07.839Z,5.72
2023-01-18T23:03:10.468Z,5.07
2023-01-18T23:06:13.504Z,9.37
2023-01-18T23:09:17.571Z,8.63
2023-01-18T23:12:20.593Z,7.80
2023-01-18T23:15:41.642Z,8.73
2023-01-18T23:18:44.497Z,8.77
2023-01-18T23:21:47.513Z,10.53
2023-01-18T23:24:50.389Z,8.57
2023-01-18T23:27:52.904Z,8.00
2023-01-18T23:30:56.213Z,8.23
2023-01-18T23:33:58.845Z,9.68
2023-01-18T23:37:01.808Z,12.83
2023-01-18T23:40:23.533Z,9.27
2023-01-18T23:43:44.873Z,9.50
2023-01-18T23:47:05.734Z,12.40
2023-01-18T23:50:27.666Z,10.20
2023-01-18T23:53:48.780Z,7.53
2023-01-18T23:56:51.674Z,9.63
2023-01-18T23:59:54.162Z,5.78
